sensor_id;sensor_type;location;lat;lon;timestamp;temperature;humidity
68801;SHT31;55784;50.734;7.086;2022-09-12T00:01:20;14.03;91.47
68801;SHT31;55784;50.734;7.086;2022-09-12T00:03:46;14.02;91.72
68801;SHT31;55784;50.734;7.086;2022-09-12T00:06:24;14.08;91.59
68801;SHT31;55784;50.734;7.086;2022-09-12T00:08:54;14.02;91.57
68801;SHT31;55784;50.734;7.086;2022-09-12T00:11:20;14.00;91.64
68801;SHT31;55784;50.734;7.086;2022-09-12T00:13:46;13.95;91.76
68801;SHT31;55784;50.734;7.086;2022-09-12T00:16:20;13.98;91.58
68801;SHT31;55784;50.734;7.086;2022-09-12T00:18:46;14.00;91.36
68801;SHT31;55784;50.734;7.086;2022-09-12T00:21:12;14.06;91.27
68801;SHT31;55784;50.734;7.086;2022-09-12T00:23:38;14.06;91.05
68801;SHT31;55784;50.734;7.086;2022-09-12T00:26:05;13.98;91.18
68801;SHT31;55784;50.734;7.086;2022-09-12T00:28:32;13.92;91.28
68801;SHT31;55784;50.734;7.086;2022-09-12T00:30:58;13.87;91.51
68801;SHT31;55784;50.734;7.086;2022-09-12T00:33:23;13.83;91.66
68801;SHT31;55784;50.734;7.086;2022-09-12T00:35:50;13.78;91.85
68801;SHT31;55784;50.734;7.086;2022-09-12T00:38:19;13.80;92.09
68801;SHT31;55784;50.734;7.086;2022-09-12T00:40:45;13.83;92.18
68801;SHT31;55784;50.734;7.086;2022-09-12T00:43:33;13.78;92.27
68801;SHT31;55784;50.734;7.086;2022-09-12T00:46:02;13.78;92.52
68801;SHT31;55784;50.734;7.086;2022-09-12T00:48:43;13.75;92.51
68801;SHT31;55784;50.734;7.086;2022-09-12T00:51:10;13.70;92.52
68801;SHT31;55784;50.734;7.086;2022-09-12T00:53:38;13.68;92.58
68801;SHT31;55784;50.734;7.086;2022-09-12T00:56:04;13.66;92.71
68801;SHT31;55784;50.734;7.086;2022-09-12T00:58:42;13.65;92.80
68801;SHT31;55784;50.734;7.086;2022-09-12T01:01:09;13.62;92.82
68801;SHT31;55784;50.734;7.086;2022-09-12T01:03:34;13.61;92.84
68801;SHT31;55784;50.734;7.086;2022-09-12T01:08:26;13.57;92.84
68801;SHT31;55784;50.734;7.086;2022-09-12T01:10:53;13.55;92.88
68801;SHT31;55784;50.734;7.086;2022-09-12T01:13:19;13.51;93.08
68801;SHT31;55784;50.734;7.086;2022-09-12T01:15:44;13.51;93.14
68801;SHT31;55784;50.734;7.086;2022-09-12T01:32:39;13.51;93.06
68801;SHT31;55784;50.734;7.086;2022-09-12T01:35:30;13.57;92.96
68801;SHT31;55784;50.734;7.086;2022-09-12T01:40:45;13.45;92.67
68801;SHT31;55784;50.734;7.086;2022-09-12T01:46:02;13.39;92.66
68801;SHT31;55784;50.734;7.086;2022-09-12T01:48:45;13.38;92.72
68801;SHT31;55784;50.734;7.086;2022-09-12T01:51:17;13.37;92.77
68801;SHT31;55784;50.734;7.086;2022-09-12T01:53:49;13.37;92.75
68801;SHT31;55784;50.734;7.086;2022-09-12T01:56:26;13.31;92.93
68801;SHT31;55784;50.734;7.086;2022-09-12T01:59:07;13.27;93.04
68801;SHT31;55784;50.734;7.086;2022-09-12T02:01:37;13.28;93.15
68801;SHT31;55784;50.734;7.086;2022-09-12T02:04:11;13.27;93.25
68801;SHT31;55784;50.734;7.086;2022-09-12T02:06:50;13.22;93.37
68801;SHT31;55784;50.734;7.086;2022-09-12T02:09:21;13.22;93.44
68801;SHT31;55784;50.734;7.086;2022-09-12T02:11:49;13.19;93.51
68801;SHT31;55784;50.734;7.086;2022-09-12T02:14:21;13.22;93.53
68801;SHT31;55784;50.734;7.086;2022-09-12T02:16:52;13.27;93.42
68801;SHT31;55784;50.734;7.086;2022-09-12T02:19:22;13.22;93.33
68801;SHT31;55784;50.734;7.086;2022-09-12T02:21:53;13.25;93.25
68801;SHT31;55784;50.734;7.086;2022-09-12T02:24:24;13.18;93.26
68801;SHT31;55784;50.734;7.086;2022-09-12T02:26:55;13.17;93.32
68801;SHT31;55784;50.734;7.086;2022-09-12T02:29:22;13.17;93.29
68801;SHT31;55784;50.734;7.086;2022-09-12T02:31:56;13.14;93.22
68801;SHT31;55784;50.734;7.086;2022-09-12T02:37:23;13.12;93.25
68801;SHT31;55784;50.734;7.086;2022-09-12T02:39:53;13.14;93.19
68801;SHT31;55784;50.734;7.086;2022-09-12T02:42:20;13.14;93.28
68801;SHT31;55784;50.734;7.086;2022-09-12T02:44:46;13.17;93.28
68801;SHT31;55784;50.734;7.086;2022-09-12T02:47:23;13.11;93.40
68801;SHT31;55784;50.734;7.086;2022-09-12T02:49:51;13.05;93.44
68801;SHT31;55784;50.734;7.086;2022-09-12T02:52:17;13.03;93.74
68801;SHT31;55784;50.734;7.086;2022-09-12T02:54:43;12.95;93.67
68801;SHT31;55784;50.734;7.086;2022-09-12T02:57:16;13.00;93.84
68801;SHT31;55784;50.734;7.086;2022-09-12T02:59:42;13.01;93.78
68801;SHT31;55784;50.734;7.086;2022-09-12T03:02:25;12.97;93.73
68801;SHT31;55784;50.734;7.086;2022-09-12T03:04:54;12.93;93.73
68801;SHT31;55784;50.734;7.086;2022-09-12T03:07:41;12.94;93.99
68801;SHT31;55784;50.734;7.086;2022-09-12T03:18:19;13.01;94.60
68801;SHT31;55784;50.734;7.086;2022-09-12T03:23:36;13.04;94.65
68801;SHT31;55784;50.734;7.086;2022-09-12T03:26:08;13.01;94.63
68801;SHT31;55784;50.734;7.086;2022-09-12T03:28:38;12.98;94.58
68801;SHT31;55784;50.734;7.086;2022-09-12T03:31:14;12.97;94.57
68801;SHT31;55784;50.734;7.086;2022-09-12T03:33:41;12.93;94.50
68801;SHT31;55784;50.734;7.086;2022-09-12T03:36:14;12.93;94.53
68801;SHT31;55784;50.734;7.086;2022-09-12T03:38:40;12.91;94.64
68801;SHT31;55784;50.734;7.086;2022-09-12T03:41:05;12.94;94.78
68801;SHT31;55784;50.734;7.086;2022-09-12T03:43:31;12.91;94.85
68801;SHT31;55784;50.734;7.086;2022-09-12T03:45:56;12.88;94.86
68801;SHT31;55784;50.734;7.086;2022-09-12T03:48:21;12.87;94.89
68801;SHT31;55784;50.734;7.086;2022-09-12T03:50:47;12.86;94.97
68801;SHT31;55784;50.734;7.086;2022-09-12T03:53:12;12.86;94.97
68801;SHT31;55784;50.734;7.086;2022-09-12T03:55:38;12.90;95.24
68801;SHT31;55784;50.734;7.086;2022-09-12T03:58:03;12.86;95.26
68801;SHT31;55784;50.734;7.086;2022-09-12T04:00:28;12.84;95.21
68801;SHT31;55784;50.734;7.086;2022-09-12T04:02:55;12.87;95.36
68801;SHT31;55784;50.734;7.086;2022-09-12T04:05:21;12.86;95.41
68801;SHT31;55784;50.734;7.086;2022-09-12T04:07:47;12.90;95.40
68801;SHT31;55784;50.734;7.086;2022-09-12T04:10:12;12.93;95.34
68801;SHT31;55784;50.734;7.086;2022-09-12T04:12:37;12.90;95.33
68801;SHT31;55784;50.734;7.086;2022-09-12T04:15:04;12.87;95.43
68801;SHT31;55784;50.734;7.086;2022-09-12T04:17:32;12.83;95.46
68801;SHT31;55784;50.734;7.086;2022-09-12T04:19:58;12.84;95.54
68801;SHT31;55784;50.734;7.086;2022-09-12T04:22:23;12.81;95.56
68801;SHT31;55784;50.734;7.086;2022-09-12T04:24:48;12.80;95.54
68801;SHT31;55784;50.734;7.086;2022-09-12T04:27:14;12.80;95.73
68801;SHT31;55784;50.734;7.086;2022-09-12T04:29:39;12.81;95.61
68801;SHT31;55784;50.734;7.086;2022-09-12T04:32:04;12.83;95.64
68801;SHT31;55784;50.734;7.086;2022-09-12T04:34:30;12.86;95.68
68801;SHT31;55784;50.734;7.086;2022-09-12T04:36:56;12.84;95.60
68801;SHT31;55784;50.734;7.086;2022-09-12T04:39:22;12.80;95.72
68801;SHT31;55784;50.734;7.086;2022-09-12T04:41:47;12.79;95.80
68801;SHT31;55784;50.734;7.086;2022-09-12T04:44:13;12.79;95.73
68801;SHT31;55784;50.734;7.086;2022-09-12T04:46:42;12.77;95.75
68801;SHT31;55784;50.734;7.086;2022-09-12T04:49:09;12.74;95.80
68801;SHT31;55784;50.734;7.086;2022-09-12T04:51:37;12.72;95.84
68801;SHT31;55784;50.734;7.086;2022-09-12T04:54:11;12.73;95.74
68801;SHT31;55784;50.734;7.086;2022-09-12T04:56:41;12.73;95.81
68801;SHT31;55784;50.734;7.086;2022-09-12T04:59:07;12.73;95.83
68801;SHT31;55784;50.734;7.086;2022-09-12T05:01:33;12.74;95.81
68801;SHT31;55784;50.734;7.086;2022-09-12T05:03:59;12.76;95.79
68801;SHT31;55784;50.734;7.086;2022-09-12T05:06:27;12.77;95.85
68801;SHT31;55784;50.734;7.086;2022-09-12T05:08:53;12.79;95.88
68801;SHT31;55784;50.734;7.086;2022-09-12T05:11:22;12.81;95.79
68801;SHT31;55784;50.734;7.086;2022-09-12T05:13:48;12.87;95.82
68801;SHT31;55784;50.734;7.086;2022-09-12T05:16:16;12.91;95.86
68801;SHT31;55784;50.734;7.086;2022-09-12T05:18:43;13.03;95.81
68801;SHT31;55784;50.734;7.086;2022-09-12T05:21:18;13.05;95.68
68801;SHT31;55784;50.734;7.086;2022-09-12T05:23:43;13.12;95.54
68801;SHT31;55784;50.734;7.086;2022-09-12T05:26:14;13.19;95.38
68801;SHT31;55784;50.734;7.086;2022-09-12T05:29:12;13.27;95.20
68801;SHT31;55784;50.734;7.086;2022-09-12T05:35:08;13.48;94.73
68801;SHT31;55784;50.734;7.086;2022-09-12T05:38:09;13.57;94.59
68801;SHT31;55784;50.734;7.086;2022-09-12T05:40:48;13.72;94.42
68801;SHT31;55784;50.734;7.086;2022-09-12T05:55:34;14.33;92.42
68801;SHT31;55784;50.734;7.086;2022-09-12T06:01:56;14.65;91.72
68801;SHT31;55784;50.734;7.086;2022-09-12T06:07:25;14.91;90.95
68801;SHT31;55784;50.734;7.086;2022-09-12T06:10:21;15.01;90.31
68801;SHT31;55784;50.734;7.086;2022-09-12T06:12:56;15.09;90.02
68801;SHT31;55784;50.734;7.086;2022-09-12T06:15:37;15.15;89.92
68801;SHT31;55784;50.734;7.086;2022-09-12T06:18:39;15.22;89.66
68801;SHT31;55784;50.734;7.086;2022-09-12T06:25:03;15.33;89.04
68801;SHT31;55784;50.734;7.086;2022-09-12T06:27:29;15.36;89.00
68801;SHT31;55784;50.734;7.086;2022-09-12T06:29:55;15.47;88.75
68801;SHT31;55784;50.734;7.086;2022-09-12T06:32:23;15.53;88.51
68801;SHT31;55784;50.734;7.086;2022-09-12T06:34:49;15.56;88.30
68801;SHT31;55784;50.734;7.086;2022-09-12T06:37:14;15.62;88.18
68801;SHT31;55784;50.734;7.086;2022-09-12T06:39:49;15.69;88.11
68801;SHT31;55784;50.734;7.086;2022-09-12T06:44:52;15.87;87.66
68801;SHT31;55784;50.734;7.086;2022-09-12T06:47:17;15.94;87.66
68801;SHT31;55784;50.734;7.086;2022-09-12T06:49:45;16.04;87.30
68801;SHT31;55784;50.734;7.086;2022-09-12T06:52:13;16.14;87.13
68801;SHT31;55784;50.734;7.086;2022-09-12T06:54:38;16.20;86.72
68801;SHT31;55784;50.734;7.086;2022-09-12T06:57:04;16.30;86.32
68801;SHT31;55784;50.734;7.086;2022-09-12T06:59:29;16.42;85.30
68801;SHT31;55784;50.734;7.086;2022-09-12T07:01:54;16.54;85.10
68801;SHT31;55784;50.734;7.086;2022-09-12T07:04:20;16.62;84.88
68801;SHT31;55784;50.734;7.086;2022-09-12T07:06:46;16.75;84.31
68801;SHT31;55784;50.734;7.086;2022-09-12T07:09:13;16.85;83.91
68801;SHT31;55784;50.734;7.086;2022-09-12T07:11:43;16.98;83.81
68801;SHT31;55784;50.734;7.086;2022-09-12T07:14:11;17.13;83.17
68801;SHT31;55784;50.734;7.086;2022-09-12T07:16:37;17.22;82.68
68801;SHT31;55784;50.734;7.086;2022-09-12T07:19:04;17.36;82.00
68801;SHT31;55784;50.734;7.086;2022-09-12T07:21:29;17.50;81.55
68801;SHT31;55784;50.734;7.086;2022-09-12T07:23:55;17.63;81.24
68801;SHT31;55784;50.734;7.086;2022-09-12T07:26:22;17.73;80.36
68801;SHT31;55784;50.734;7.086;2022-09-12T07:28:52;17.85;80.13
68801;SHT31;55784;50.734;7.086;2022-09-12T07:31:20;17.95;79.55
68801;SHT31;55784;50.734;7.086;2022-09-12T07:33:47;18.04;79.09
68801;SHT31;55784;50.734;7.086;2022-09-12T07:36:15;18.09;78.53
68801;SHT31;55784;50.734;7.086;2022-09-12T07:38:42;18.18;78.45
68801;SHT31;55784;50.734;7.086;2022-09-12T07:41:22;18.28;77.90
68801;SHT31;55784;50.734;7.086;2022-09-12T07:43:56;18.34;77.87
68801;SHT31;55784;50.734;7.086;2022-09-12T07:46:23;18.41;77.79
68801;SHT31;55784;50.734;7.086;2022-09-12T07:48:53;18.52;77.47
68801;SHT31;55784;50.734;7.086;2022-09-12T07:51:19;18.62;77.03
68801;SHT31;55784;50.734;7.086;2022-09-12T07:53:45;18.69;76.85
68801;SHT31;55784;50.734;7.086;2022-09-12T07:56:12;18.83;76.57
68801;SHT31;55784;50.734;7.086;2022-09-12T07:58:39;18.93;76.49
68801;SHT31;55784;50.734;7.086;2022-09-12T08:01:13;19.07;76.20
68801;SHT31;55784;50.734;7.086;2022-09-12T08:03:40;19.04;75.86
68801;SHT31;55784;50.734;7.086;2022-09-12T08:06:07;19.23;75.63
68801;SHT31;55784;50.734;7.086;2022-09-12T08:08:34;19.31;75.01
68801;SHT31;55784;50.734;7.086;2022-09-12T08:11:01;19.43;74.77
68801;SHT31;55784;50.734;7.086;2022-09-12T08:13:28;19.58;74.19
68801;SHT31;55784;50.734;7.086;2022-09-12T08:16:02;19.64;73.62
68801;SHT31;55784;50.734;7.086;2022-09-12T08:18:29;19.83;73.10
68801;SHT31;55784;50.734;7.086;2022-09-12T08:21:03;19.93;72.83
68801;SHT31;55784;50.734;7.086;2022-09-12T08:24:17;20.06;72.52
68801;SHT31;55784;50.734;7.086;2022-09-12T08:26:24;20.25;71.71
68801;SHT31;55784;50.734;7.086;2022-09-12T08:28:50;20.35;71.17
68801;SHT31;55784;50.734;7.086;2022-09-12T08:31:36;20.47;70.46
68801;SHT31;55784;50.734;7.086;2022-09-12T08:34:08;20.70;70.24
68801;SHT31;55784;50.734;7.086;2022-09-12T08:36:44;20.90;69.51
68801;SHT31;55784;50.734;7.086;2022-09-12T08:39:19;21.14;69.06
68801;SHT31;55784;50.734;7.086;2022-09-12T08:42:01;21.27;68.56
68801;SHT31;55784;50.734;7.086;2022-09-12T08:44:58;21.38;67.87
68801;SHT31;55784;50.734;7.086;2022-09-12T08:47:37;21.42;67.26
68801;SHT31;55784;50.734;7.086;2022-09-12T08:50:22;21.39;67.56
68801;SHT31;55784;50.734;7.086;2022-09-12T08:53:12;21.38;67.59
68801;SHT31;55784;50.734;7.086;2022-09-12T08:55:49;21.49;67.16
68801;SHT31;55784;50.734;7.086;2022-09-12T08:58:17;21.54;67.16
68801;SHT31;55784;50.734;7.086;2022-09-12T09:01:23;21.57;66.96
68801;SHT31;55784;50.734;7.086;2022-09-12T09:17:38;21.27;67.09
68801;SHT31;55784;50.734;7.086;2022-09-12T09:20:26;21.32;67.25
68801;SHT31;55784;50.734;7.086;2022-09-12T09:22:58;21.35;66.83
68801;SHT31;55784;50.734;7.086;2022-09-12T09:31:01;21.51;66.35
68801;SHT31;55784;50.734;7.086;2022-09-12T09:33:32;21.54;66.23
68801;SHT31;55784;50.734;7.086;2022-09-12T09:36:09;21.62;66.01
68801;SHT31;55784;50.734;7.086;2022-09-12T09:39:04;21.72;65.58
68801;SHT31;55784;50.734;7.086;2022-09-12T09:44:05;21.85;65.16
68801;SHT31;55784;50.734;7.086;2022-09-12T09:46:31;21.86;64.72
68801;SHT31;55784;50.734;7.086;2022-09-12T09:48:58;21.90;64.08
68801;SHT31;55784;50.734;7.086;2022-09-12T09:51:27;21.99;63.80
68801;SHT31;55784;50.734;7.086;2022-09-12T09:54:10;22.05;63.32
68801;SHT31;55784;50.734;7.086;2022-09-12T09:56:41;22.10;62.92
68801;SHT31;55784;50.734;7.086;2022-09-12T09:59:26;22.17;62.56
68801;SHT31;55784;50.734;7.086;2022-09-12T10:12:28;22.54;61.04
68801;SHT31;55784;50.734;7.086;2022-09-12T10:15:01;22.59;60.95
68801;SHT31;55784;50.734;7.086;2022-09-12T10:21:17;22.59;60.24
68801;SHT31;55784;50.734;7.086;2022-09-12T10:24:25;22.67;60.04
68801;SHT31;55784;50.734;7.086;2022-09-12T10:26:56;22.74;59.94
68801;SHT31;55784;50.734;7.086;2022-09-12T10:29:39;22.73;59.42
68801;SHT31;55784;50.734;7.086;2022-09-12T10:32:34;22.80;59.89
68801;SHT31;55784;50.734;7.086;2022-09-12T10:35:06;22.77;59.54
68801;SHT31;55784;50.734;7.086;2022-09-12T10:37:36;22.74;59.12
68801;SHT31;55784;50.734;7.086;2022-09-12T10:40:05;22.78;59.46
68801;SHT31;55784;50.734;7.086;2022-09-12T10:42:49;22.78;59.21
68801;SHT31;55784;50.734;7.086;2022-09-12T10:47:52;22.81;58.52
68801;SHT31;55784;50.734;7.086;2022-09-12T10:50:28;22.90;58.73
68801;SHT31;55784;50.734;7.086;2022-09-12T10:53:22;23.01;58.49
68801;SHT31;55784;50.734;7.086;2022-09-12T10:56:08;23.02;58.17
68801;SHT31;55784;50.734;7.086;2022-09-12T11:08:06;23.16;57.53
68801;SHT31;55784;50.734;7.086;2022-09-12T11:23:01;23.59;57.17
68801;SHT31;55784;50.734;7.086;2022-09-12T11:29:06;23.69;56.12
68801;SHT31;55784;50.734;7.086;2022-09-12T11:50:57;24.02;52.69
68801;SHT31;55784;50.734;7.086;2022-09-12T11:54:10;24.05;52.65
68801;SHT31;55784;50.734;7.086;2022-09-12T11:57:01;24.12;51.98
68801;SHT31;55784;50.734;7.086;2022-09-12T12:14:24;24.31;50.57
68801;SHT31;55784;50.734;7.086;2022-09-12T12:20:19;24.46;51.22
68801;SHT31;55784;50.734;7.086;2022-09-12T12:25:59;24.57;51.08
68801;SHT31;55784;50.734;7.086;2022-09-12T12:35:00;24.64;49.32
68801;SHT31;55784;50.734;7.086;2022-09-12T12:37:47;24.69;49.32
68801;SHT31;55784;50.734;7.086;2022-09-12T12:44:45;24.78;49.97
68801;SHT31;55784;50.734;7.086;2022-09-12T12:50:04;24.88;50.39
68801;SHT31;55784;50.734;7.086;2022-09-12T12:55:37;24.95;50.62
68801;SHT31;55784;50.734;7.086;2022-09-12T12:58:29;24.95;50.65
68801;SHT31;55784;50.734;7.086;2022-09-12T13:01:12;25.01;51.19
68801;SHT31;55784;50.734;7.086;2022-09-12T13:04:02;25.02;50.79
68801;SHT31;55784;50.734;7.086;2022-09-12T13:06:46;25.08;51.34
68801;SHT31;55784;50.734;7.086;2022-09-12T13:09:24;25.09;51.67
68801;SHT31;55784;50.734;7.086;2022-09-12T13:11:57;25.18;51.29
68801;SHT31;55784;50.734;7.086;2022-09-12T13:14:53;25.18;51.40
68801;SHT31;55784;50.734;7.086;2022-09-12T13:17:43;25.12;50.98
68801;SHT31;55784;50.734;7.086;2022-09-12T13:23:18;25.23;51.24
68801;SHT31;55784;50.734;7.086;2022-09-12T13:26:31;25.26;50.86
68801;SHT31;55784;50.734;7.086;2022-09-12T13:29:34;25.30;50.68
68801;SHT31;55784;50.734;7.086;2022-09-12T13:32:17;25.32;50.73
68801;SHT31;55784;50.734;7.086;2022-09-12T13:35:12;25.23;50.61
68801;SHT31;55784;50.734;7.086;2022-09-12T13:37:48;25.28;50.49
68801;SHT31;55784;50.734;7.086;2022-09-12T13:43:30;25.36;50.43
68801;SHT31;55784;50.734;7.086;2022-09-12T13:46:01;25.45;50.67
68801;SHT31;55784;50.734;7.086;2022-09-12T13:48:26;25.45;50.22
68801;SHT31;55784;50.734;7.086;2022-09-12T13:50:56;25.52;50.39
68801;SHT31;55784;50.734;7.086;2022-09-12T13:53:27;25.62;50.00
68801;SHT31;55784;50.734;7.086;2022-09-12T13:55:57;25.69;50.36
68801;SHT31;55784;50.734;7.086;2022-09-12T13:58:28;25.69;50.11
68801;SHT31;55784;50.734;7.086;2022-09-12T14:01:09;25.70;50.03
68801;SHT31;55784;50.734;7.086;2022-09-12T14:04:07;25.73;49.86
68801;SHT31;55784;50.734;7.086;2022-09-12T14:06:53;25.76;49.80
68801;SHT31;55784;50.734;7.086;2022-09-12T14:09:27;25.83;49.92
68801;SHT31;55784;50.734;7.086;2022-09-12T14:11:54;25.86;49.45
68801;SHT31;55784;50.734;7.086;2022-09-12T14:14:34;25.87;49.61
68801;SHT31;55784;50.734;7.086;2022-09-12T14:17:13;25.90;49.22
68801;SHT31;55784;50.734;7.086;2022-09-12T14:19:40;25.94;48.80
68801;SHT31;55784;50.734;7.086;2022-09-12T14:22:10;26.01;49.36
68801;SHT31;55784;50.734;7.086;2022-09-12T14:24:41;26.04;48.82
68801;SHT31;55784;50.734;7.086;2022-09-12T14:27:08;25.98;48.91
68801;SHT31;55784;50.734;7.086;2022-09-12T14:29:34;26.00;48.72
68801;SHT31;55784;50.734;7.086;2022-09-12T14:32:03;26.07;48.72
68801;SHT31;55784;50.734;7.086;2022-09-12T14:34:30;26.01;48.43
68801;SHT31;55784;50.734;7.086;2022-09-12T14:36:56;26.11;48.23
68801;SHT31;55784;50.734;7.086;2022-09-12T14:39:30;26.14;47.71
68801;SHT31;55784;50.734;7.086;2022-09-12T14:42:10;26.14;47.60
68801;SHT31;55784;50.734;7.086;2022-09-12T14:44:43;26.10;47.53
68801;SHT31;55784;50.734;7.086;2022-09-12T14:47:22;26.10;47.61
68801;SHT31;55784;50.734;7.086;2022-09-12T14:49:49;26.08;47.38
68801;SHT31;55784;50.734;7.086;2022-09-12T14:52:33;26.05;47.38
68801;SHT31;55784;50.734;7.086;2022-09-12T14:55:26;26.13;47.44
68801;SHT31;55784;50.734;7.086;2022-09-12T14:58:15;26.11;47.54
68801;SHT31;55784;50.734;7.086;2022-09-12T15:06:26;26.04;46.76
68801;SHT31;55784;50.734;7.086;2022-09-12T15:08:54;26.08;46.94
68801;SHT31;55784;50.734;7.086;2022-09-12T15:11:20;26.03;46.73
68801;SHT31;55784;50.734;7.086;2022-09-12T15:13:45;26.07;46.53
68801;SHT31;55784;50.734;7.086;2022-09-12T15:16:10;26.04;46.09
68801;SHT31;55784;50.734;7.086;2022-09-12T15:18:36;26.03;46.23
68801;SHT31;55784;50.734;7.086;2022-09-12T15:21:10;25.98;46.05
68801;SHT31;55784;50.734;7.086;2022-09-12T15:23:43;25.91;46.29
68801;SHT31;55784;50.734;7.086;2022-09-12T15:26:15;25.87;45.66
68801;SHT31;55784;50.734;7.086;2022-09-12T15:28:41;25.89;45.94
68801;SHT31;55784;50.734;7.086;2022-09-12T15:33:45;25.86;45.53
68801;SHT31;55784;50.734;7.086;2022-09-12T15:36:18;25.87;45.20
68801;SHT31;55784;50.734;7.086;2022-09-12T15:38:45;25.86;44.95
68801;SHT31;55784;50.734;7.086;2022-09-12T15:41:35;25.86;44.96
68801;SHT31;55784;50.734;7.086;2022-09-12T15:44:04;25.87;44.73
68801;SHT31;55784;50.734;7.086;2022-09-12T15:46:30;25.89;44.71
68801;SHT31;55784;50.734;7.086;2022-09-12T15:48:55;25.84;44.42
68801;SHT31;55784;50.734;7.086;2022-09-12T15:51:21;25.86;44.56
68801;SHT31;55784;50.734;7.086;2022-09-12T15:53:48;25.83;44.27
68801;SHT31;55784;50.734;7.086;2022-09-12T15:56:15;25.80;44.78
68801;SHT31;55784;50.734;7.086;2022-09-12T15:58:41;25.76;44.50
68801;SHT31;55784;50.734;7.086;2022-09-12T16:01:09;25.69;44.29
68801;SHT31;55784;50.734;7.086;2022-09-12T16:03:35;25.65;44.62
68801;SHT31;55784;50.734;7.086;2022-09-12T16:06:02;25.65;44.58
68801;SHT31;55784;50.734;7.086;2022-09-12T16:08:29;25.65;44.06
68801;SHT31;55784;50.734;7.086;2022-09-12T16:11:03;25.65;44.17
68801;SHT31;55784;50.734;7.086;2022-09-12T16:13:30;25.62;44.37
68801;SHT31;55784;50.734;7.086;2022-09-12T16:15:56;25.53;44.56
68801;SHT31;55784;50.734;7.086;2022-09-12T16:18:22;25.52;44.54
68801;SHT31;55784;50.734;7.086;2022-09-12T16:20:51;25.45;44.28
68801;SHT31;55784;50.734;7.086;2022-09-12T16:23:16;25.42;44.66
68801;SHT31;55784;50.734;7.086;2022-09-12T16:25:42;25.32;44.60
68801;SHT31;55784;50.734;7.086;2022-09-12T16:28:07;25.33;44.77
68801;SHT31;55784;50.734;7.086;2022-09-12T16:30:33;25.25;44.67
68801;SHT31;55784;50.734;7.086;2022-09-12T16:32:58;25.25;45.08
68801;SHT31;55784;50.734;7.086;2022-09-12T16:35:23;25.20;44.61
68801;SHT31;55784;50.734;7.086;2022-09-12T16:37:49;25.15;45.10
68801;SHT31;55784;50.734;7.086;2022-09-12T16:40:15;25.15;45.29
68801;SHT31;55784;50.734;7.086;2022-09-12T16:42:46;25.16;45.39
68801;SHT31;55784;50.734;7.086;2022-09-12T16:45:12;25.16;45.64
68801;SHT31;55784;50.734;7.086;2022-09-12T16:47:38;25.19;45.14
68801;SHT31;55784;50.734;7.086;2022-09-12T16:50:04;25.32;45.21
68801;SHT31;55784;50.734;7.086;2022-09-12T16:52:34;25.26;45.49
68801;SHT31;55784;50.734;7.086;2022-09-12T16:55:01;25.20;45.51
68801;SHT31;55784;50.734;7.086;2022-09-12T16:57:27;25.23;45.36
68801;SHT31;55784;50.734;7.086;2022-09-12T16:59:55;25.18;45.10
68801;SHT31;55784;50.734;7.086;2022-09-12T17:02:21;25.11;45.20
68801;SHT31;55784;50.734;7.086;2022-09-12T17:04:49;24.95;45.50
68801;SHT31;55784;50.734;7.086;2022-09-12T17:07:16;24.85;46.34
68801;SHT31;55784;50.734;7.086;2022-09-12T17:09:42;24.72;46.94
68801;SHT31;55784;50.734;7.086;2022-09-12T17:12:07;24.61;47.11
68801;SHT31;55784;50.734;7.086;2022-09-12T17:14:36;24.54;47.23
68801;SHT31;55784;50.734;7.086;2022-09-12T17:17:01;24.44;47.37
68801;SHT31;55784;50.734;7.086;2022-09-12T17:19:26;24.38;47.51
68801;SHT31;55784;50.734;7.086;2022-09-12T17:21:54;24.28;47.88
68801;SHT31;55784;50.734;7.086;2022-09-12T17:24:20;24.16;47.88
68801;SHT31;55784;50.734;7.086;2022-09-12T17:26:47;24.02;48.24
68801;SHT31;55784;50.734;7.086;2022-09-12T17:29:14;23.87;48.79
68801;SHT31;55784;50.734;7.086;2022-09-12T17:31:40;23.73;48.70
68801;SHT31;55784;50.734;7.086;2022-09-12T17:34:05;23.61;49.27
68801;SHT31;55784;50.734;7.086;2022-09-12T17:36:31;23.45;49.85
68801;SHT31;55784;50.734;7.086;2022-09-12T17:38:57;23.29;50.23
68801;SHT31;55784;50.734;7.086;2022-09-12T17:41:26;23.21;50.46
68801;SHT31;55784;50.734;7.086;2022-09-12T17:43:55;23.10;50.83
68801;SHT31;55784;50.734;7.086;2022-09-12T17:46:24;22.97;50.97
68801;SHT31;55784;50.734;7.086;2022-09-12T17:48:54;22.88;51.65
68801;SHT31;55784;50.734;7.086;2022-09-12T17:51:21;22.78;51.49
68801;SHT31;55784;50.734;7.086;2022-09-12T17:53:48;22.61;52.42
68801;SHT31;55784;50.734;7.086;2022-09-12T17:56:19;22.53;52.19
68801;SHT31;55784;50.734;7.086;2022-09-12T17:58:45;22.44;52.31
68801;SHT31;55784;50.734;7.086;2022-09-12T18:01:12;22.40;52.43
68801;SHT31;55784;50.734;7.086;2022-09-12T18:03:57;22.36;52.54
68801;SHT31;55784;50.734;7.086;2022-09-12T18:06:25;22.36;52.52
68801;SHT31;55784;50.734;7.086;2022-09-12T18:08:50;22.26;52.84
68801;SHT31;55784;50.734;7.086;2022-09-12T18:11:16;22.28;53.17
68801;SHT31;55784;50.734;7.086;2022-09-12T18:13:41;22.23;53.12
68801;SHT31;55784;50.734;7.086;2022-09-12T18:16:09;22.14;53.63
68801;SHT31;55784;50.734;7.086;2022-09-12T18:18:36;22.08;53.82
68801;SHT31;55784;50.734;7.086;2022-09-12T18:21:03;22.05;53.85
68801;SHT31;55784;50.734;7.086;2022-09-12T18:23:29;21.93;54.00
68801;SHT31;55784;50.734;7.086;2022-09-12T18:25:59;21.88;54.34
68801;SHT31;55784;50.734;7.086;2022-09-12T18:28:25;21.79;54.65
68801;SHT31;55784;50.734;7.086;2022-09-12T18:30:51;21.63;55.01
68801;SHT31;55784;50.734;7.086;2022-09-12T18:33:16;21.61;55.23
68801;SHT31;55784;50.734;7.086;2022-09-12T18:35:41;21.54;55.70
68801;SHT31;55784;50.734;7.086;2022-09-12T18:38:07;21.49;55.94
68801;SHT31;55784;50.734;7.086;2022-09-12T18:40:35;21.48;56.10
68801;SHT31;55784;50.734;7.086;2022-09-12T18:43:00;21.37;56.60
68801;SHT31;55784;50.734;7.086;2022-09-12T18:45:25;21.32;56.74
68801;SHT31;55784;50.734;7.086;2022-09-12T18:47:51;21.23;56.95
68801;SHT31;55784;50.734;7.086;2022-09-12T18:50:16;21.10;57.31
68801;SHT31;55784;50.734;7.086;2022-09-12T18:52:42;20.98;57.81
68801;SHT31;55784;50.734;7.086;2022-09-12T18:55:10;20.91;58.29
68801;SHT31;55784;50.734;7.086;2022-09-12T18:57:36;20.81;58.80
68801;SHT31;55784;50.734;7.086;2022-09-12T19:00:02;20.74;59.09
68801;SHT31;55784;50.734;7.086;2022-09-12T19:02:34;20.67;59.30
68801;SHT31;55784;50.734;7.086;2022-09-12T19:04:59;20.60;59.75
68801;SHT31;55784;50.734;7.086;2022-09-12T19:07:25;20.54;60.03
68801;SHT31;55784;50.734;7.086;2022-09-12T19:09:50;20.49;60.33
68801;SHT31;55784;50.734;7.086;2022-09-12T19:12:16;20.43;60.47
68801;SHT31;55784;50.734;7.086;2022-09-12T19:14:44;20.44;60.97
68801;SHT31;55784;50.734;7.086;2022-09-12T19:17:09;20.43;60.78